createdAt,value
2017-12-02T00:00:28.623Z,1015.85
2017-12-02T00:01:09.188Z,1015.85
2017-12-02T00:01:49.757Z,1015.84
2017-12-02T00:02:30.326Z,1015.87
2017-12-02T00:03:10.921Z,1015.91
2017-12-02T00:03:51.505Z,1015.92
2017-12-02T00:04:32.105Z,1015.91
2017-12-02T00:05:12.681Z,1015.9
2017-12-02T00:05:53.268Z,1015.98
2017-12-02T00:06:33.837Z,1015.97
2017-12-02T00:07:14.444Z,1015.95
2017-12-02T00:07:55.028Z,1015.96
2017-12-02T00:08:35.621Z,1015.97
2017-12-02T00:09:16.187Z,1016.01
2017-12-02T00:09:56.750Z,1016.02
2017-12-02T00:10:37.309Z,1016.05
2017-12-02T00:11:17.883Z,1016.05
2017-12-02T00:11:58.450Z,1016.03
2017-12-02T00:12:39.021Z,1016.05
2017-12-02T00:13:19.590Z,1016.07
2017-12-02T00:14:00.157Z,1016.03
2017-12-02T00:14:40.732Z,1016
2017-12-02T00:15:21.330Z,1016.02
2017-12-02T00:16:01.904Z,1016.04
2017-12-02T00:16:42.492Z,1016.04
2017-12-02T00:17:23.069Z,1016.08
2017-12-02T00:18:03.632Z,1016.04
2017-12-02T00:18:44.201Z,1016.05
2017-12-02T00:19:24.778Z,1016.08
2017-12-02T00:20:05.349Z,1016.05
2017-12-02T00:20:45.908Z,1016.05
2017-12-02T00:21:26.470Z,1016.07
2017-12-02T00:22:07.035Z,1016
2017-12-02T00:22:47.607Z,1016.05
2017-12-02T00:23:28.165Z,1016.04
2017-12-02T00:24:08.734Z,1016.05
2017-12-02T00:24:49.315Z,1016.03
2017-12-02T00:25:29.880Z,1016.05
2017-12-02T00:26:10.439Z,1016.04
2017-12-02T00:26:51.011Z,1016.08
2017-12-02T00:27:31.576Z,1016.04
2017-12-02T00:28:12.139Z,1016.09
2017-12-02T00:28:52.702Z,1016.09
2017-12-02T00:29:33.284Z,1016.09
2017-12-02T00:30:13.844Z,1016.08
2017-12-02T00:30:54.411Z,1016.08
2017-12-02T00:31:34.972Z,1016.1
2017-12-02T00:32:15.530Z,1016.1
2017-12-02T00:32:56.132Z,1016.11
2017-12-02T00:33:36.694Z,1016.1
2017-12-02T00:34:17.251Z,1016.13
2017-12-02T00:34:57.826Z,1016.15
2017-12-02T00:35:38.399Z,1016.17
2017-12-02T00:36:18.987Z,1016.14
2017-12-02T00:36:59.547Z,1016.14
2017-12-02T00:37:40.135Z,1016.14
2017-12-02T00:38:20.704Z,1016.14
2017-12-02T00:39:01.270Z,1016.17
2017-12-02T00:39:41.862Z,1016.19
2017-12-02T00:40:22.426Z,1016.15
2017-12-02T00:41:02.990Z,1016.21
2017-12-02T00:41:43.573Z,1016.23
2017-12-02T00:42:24.164Z,1016.26
2017-12-02T00:43:04.733Z,1016.25
2017-12-02T00:43:45.302Z,1016.26
2017-12-02T00:44:25.876Z,1016.24
2017-12-02T00:45:06.430Z,1016.29
2017-12-02T00:45:46.988Z,1016.3
2017-12-02T00:46:27.545Z,1016.31
2017-12-02T00:47:08.109Z,1016.31
2017-12-02T00:47:48.716Z,1016.3
2017-12-02T00:48:29.274Z,1016.28
2017-12-02T00:49:09.832Z,1016.36
2017-12-02T00:49:50.423Z,1016.36
2017-12-02T00:50:31.034Z,1016.35
2017-12-02T00:51:11.588Z,1016.32
2017-12-02T00:51:52.171Z,1016.38
2017-12-02T00:52:32.728Z,1016.38
2017-12-02T00:53:13.336Z,1016.33
2017-12-02T00:53:53.891Z,1016.38
2017-12-02T00:54:34.453Z,1016.36
2017-12-02T00:55:15.043Z,1016.37
2017-12-02T00:55:55.616Z,1016.37
2017-12-02T00:56:36.184Z,1016.37
2017-12-02T00:57:16.745Z,1016.31
2017-12-02T00:57:57.296Z,1016.34
2017-12-02T00:58:37.890Z,1016.34
2017-12-02T00:59:18.450Z,1016.31
2017-12-02T00:59:59.006Z,1016.31
2017-12-02T01:00:39.570Z,1016.33
2017-12-02T01:01:20.148Z,1016.3
2017-12-02T01:02:00.725Z,1016.35
2017-12-02T01:02:41.309Z,1016.34
2017-12-02T01:03:21.889Z,1016.37
2017-12-02T01:04:02.455Z,1016.33
2017-12-02T01:04:43.015Z,1016.34
2017-12-02T01:05:23.558Z,1016.36
2017-12-02T01:06:04.137Z,1016.39
2017-12-02T01:06:44.693Z,1016.36
2017-12-02T01:07:25.261Z,1016.34
2017-12-02T01:08:05.835Z,1016.39
2017-12-02T01:08:46.397Z,1016.37
2017-12-02T01:09:26.964Z,1016.36
2017-12-02T01:10:07.541Z,1016.37
2017-12-02T01:10:48.110Z,1016.35
2017-12-02T01:11:28.678Z,1016.42
2017-12-02T01:12:09.232Z,1016.43
2017-12-02T01:12:49.800Z,1016.39
2017-12-02T01:13:30.370Z,1016.41
2017-12-02T01:14:10.933Z,1016.42
2017-12-02T01:14:51.495Z,1016.43
2017-12-02T01:15:32.060Z,1016.43
2017-12-02T01:16:12.620Z,1016.42
2017-12-02T01:16:53.176Z,1016.43
2017-12-02T01:17:33.744Z,1016.45
2017-12-02T01:18:14.298Z,1016.46
2017-12-02T01:18:54.862Z,1016.46
2017-12-02T01:19:35.431Z,1016.44
2017-12-02T01:20:16.006Z,1016.43
2017-12-02T01:20:56.563Z,1016.45
2017-12-02T01:21:37.123Z,1016.43
2017-12-02T01:22:17.687Z,1016.48
2017-12-02T01:22:58.275Z,1016.44
2017-12-02T01:23:38.835Z,1016.52
2017-12-02T01:24:19.407Z,1016.53
2017-12-02T01:24:59.973Z,1016.49
2017-12-02T01:25:40.542Z,1016.55
2017-12-02T01:26:21.108Z,1016.54
2017-12-02T01:27:01.712Z,1016.54
2017-12-02T01:27:42.275Z,1016.57
2017-12-02T01:28:22.830Z,1016.55
2017-12-02T01:29:03.409Z,1016.56
2017-12-02T01:29:43.972Z,1016.53
2017-12-02T01:30:24.536Z,1016.61
2017-12-02T01:31:05.134Z,1016.56
2017-12-02T01:31:45.682Z,1016.59
2017-12-02T01:32:26.234Z,1016.58
2017-12-02T01:33:06.787Z,1016.59
2017-12-02T01:33:47.357Z,1016.6
2017-12-02T01:34:27.936Z,1016.61
2017-12-02T01:35:08.510Z,1016.59
2017-12-02T01:35:49.089Z,1016.64
2017-12-02T01:36:29.664Z,1016.63
2017-12-02T01:37:10.229Z,1016.67
2017-12-02T01:37:50.789Z,1016.63
2017-12-02T01:38:31.341Z,1016.65
2017-12-02T01:39:11.907Z,1016.68
2017-12-02T01:39:52.489Z,1016.68
2017-12-02T01:40:33.066Z,1016.7
2017-12-02T01:41:13.628Z,1016.64
2017-12-02T01:41:54.202Z,1016.69
2017-12-02T01:42:34.748Z,1016.7
2017-12-02T01:43:21.841Z,1016.71
2017-12-02T01:44:02.401Z,1016.73
2017-12-02T01:44:43.002Z,1016.72
2017-12-02T01:45:23.590Z,1016.72
2017-12-02T01:46:04.148Z,1016.77
2017-12-02T01:46:44.714Z,1016.72
2017-12-02T01:47:25.270Z,1016.71
2017-12-02T01:48:05.838Z,1016.74
2017-12-02T01:48:46.407Z,1016.75
2017-12-02T01:49:26.990Z,1016.8
2017-12-02T01:50:07.570Z,1016.8
2017-12-02T01:50:48.155Z,1016.84
2017-12-02T01:51:28.775Z,1016.79
2017-12-02T01:52:09.348Z,1016.83
2017-12-02T01:52:49.920Z,1016.82
2017-12-02T01:53:30.497Z,1016.82
2017-12-02T01:54:11.061Z,1016.83
2017-12-02T01:54:51.620Z,1016.82
2017-12-02T01:55:32.220Z,1016.82
2017-12-02T01:56:12.772Z,1016.85
2017-12-02T01:56:53.367Z,1016.82
2017-12-02T01:57:33.931Z,1016.87
2017-12-02T01:58:14.519Z,1016.87
2017-12-02T01:58:55.076Z,1016.87
2017-12-02T01:59:35.643Z,1016.85
2017-12-02T02:00:16.237Z,1016.87
2017-12-02T02:00:56.831Z,1016.9
2017-12-02T02:01:37.426Z,1016.91
2017-12-02T02:02:17.992Z,1016.89
2017-12-02T02:02:58.580Z,1016.9
2017-12-02T02:03:39.137Z,1016.86
2017-12-02T02:04:19.705Z,1016.92
2017-12-02T02:05:00.264Z,1016.87
2017-12-02T02:05:40.852Z,1016.88
2017-12-02T02:06:21.448Z,1016.88
2017-12-02T02:07:02.026Z,1016.91
2017-12-02T02:07:42.593Z,1016.89
2017-12-02T02:08:23.159Z,1016.91
2017-12-02T02:09:03.740Z,1016.89
2017-12-02T02:09:44.297Z,1016.89
2017-12-02T02:10:24.875Z,1016.88
2017-12-02T02:11:05.467Z,1016.84
2017-12-02T02:11:46.022Z,1016.87
2017-12-02T02:12:26.597Z,1016.87
2017-12-02T02:13:07.151Z,1016.9
2017-12-02T02:13:47.716Z,1016.89
2017-12-02T02:14:28.280Z,1016.9
2017-12-02T02:15:08.847Z,1016.93
2017-12-02T02:15:49.411Z,1016.94
2017-12-02T02:16:29.975Z,1016.96
2017-12-02T02:17:10.528Z,1017
2017-12-02T02:17:51.098Z,1016.98
2017-12-02T02:18:31.662Z,1017
2017-12-02T02:19:12.220Z,1016.98
2017-12-02T02:19:52.771Z,1017.04
2017-12-02T02:20:33.332Z,1017
2017-12-02T02:21:13.905Z,1017.02
2017-12-02T02:21:54.470Z,1017.02
2017-12-02T02:22:35.016Z,1017.02
2017-12-02T02:23:15.579Z,1017.04
2017-12-02T02:23:56.138Z,1017.06
2017-12-02T02:24:36.701Z,1017.04
2017-12-02T02:25:17.265Z,1017.07
2017-12-02T02:25:57.836Z,1017.04
2017-12-02T02:26:38.414Z,1017.06
2017-12-02T02:27:18.965Z,1017.06
2017-12-02T02:27:59.532Z,1017.09
2017-12-02T02:28:40.086Z,1017.09
2017-12-02T02:29:20.654Z,1017.12
2017-12-02T02:30:01.229Z,1017.12
2017-12-02T02:30:41.787Z,1017.13
2017-12-02T02:31:22.357Z,1017.16
2017-12-02T02:32:02.942Z,1017.18
2017-12-02T02:32:43.554Z,1017.18
2017-12-02T02:33:24.116Z,1017.16
2017-12-02T02:34:04.693Z,1017.16
2017-12-02T02:34:45.266Z,1017.15
2017-12-02T02:35:25.836Z,1017.17
2017-12-02T02:36:06.404Z,1017.15
2017-12-02T02:36:46.979Z,1017.17
2017-12-02T02:37:27.546Z,1017.16
2017-12-02T02:38:08.135Z,1017.2
2017-12-02T02:38:48.665Z,1017.16
2017-12-02T02:39:29.239Z,1017.18
2017-12-02T02:40:09.815Z,1017.17
2017-12-02T02:40:50.386Z,1017.18
2017-12-02T02:41:30.959Z,1017.18
2017-12-02T02:42:11.517Z,1017.21
2017-12-02T02:42:52.083Z,1017.21
2017-12-02T02:43:32.629Z,1017.22
2017-12-02T02:44:13.189Z,1017.24
2017-12-02T02:44:53.769Z,1017.2
2017-12-02T02:45:34.344Z,1017.24
2017-12-02T02:46:14.900Z,1017.23
2017-12-02T02:46:55.470Z,1017.25
2017-12-02T02:47:36.055Z,1017.22
2017-12-02T02:48:16.615Z,1017.25
2017-12-02T02:48:57.177Z,1017.24
2017-12-02T02:49:37.862Z,1017.27
2017-12-02T02:50:18.423Z,1017.24
2017-12-02T02:50:58.975Z,1017.21
2017-12-02T02:51:39.562Z,1017.25
2017-12-02T02:52:20.155Z,1017.22
2017-12-02T02:53:00.715Z,1017.28
2017-12-02T02:53:41.293Z,1017.28
2017-12-02T02:54:21.865Z,1017.3
2017-12-02T02:55:02.456Z,1017.29
2017-12-02T02:55:43.014Z,1017.28
2017-12-02T02:56:23.583Z,1017.29
2017-12-02T02:57:04.151Z,1017.26
2017-12-02T02:57:44.713Z,1017.29
2017-12-02T02:58:25.271Z,1017.29
2017-12-02T02:59:05.843Z,1017.32
2017-12-02T02:59:46.428Z,1017.27
2017-12-02T03:00:26.986Z,1017.3
2017-12-02T03:01:07.712Z,1017.3
2017-12-02T03:01:48.239Z,1017.3
2017-12-02T03:02:28.801Z,1017.32
2017-12-02T03:03:09.353Z,1017.33
2017-12-02T03:03:49.930Z,1017.34
2017-12-02T03:04:30.504Z,1017.32
2017-12-02T03:05:11.065Z,1017.34
2017-12-02T03:05:51.635Z,1017.33
2017-12-02T03:06:32.207Z,1017.39
2017-12-02T03:07:12.779Z,1017.35
2017-12-02T03:07:53.337Z,1017.4
2017-12-02T03:08:33.919Z,1017.39
2017-12-02T03:09:14.512Z,1017.39
2017-12-02T03:09:55.103Z,1017.41
2017-12-02T03:10:35.674Z,1017.4
2017-12-02T03:11:16.259Z,1017.45
2017-12-02T03:11:56.831Z,1017.42
2017-12-02T03:12:37.404Z,1017.44
2017-12-02T03:13:17.960Z,1017.44
2017-12-02T03:13:58.589Z,1017.45
2017-12-02T03:14:39.159Z,1017.46
2017-12-02T03:15:19.728Z,1017.48
2017-12-02T03:16:00.307Z,1017.47
2017-12-02T03:16:40.875Z,1017.46
2017-12-02T03:17:21.456Z,1017.52
2017-12-02T03:18:02.019Z,1017.5
2017-12-02T03:18:42.586Z,1017.52
2017-12-02T03:19:23.179Z,1017.55
2017-12-02T03:20:03.735Z,1017.53
2017-12-02T03:20:44.336Z,1017.57
2017-12-02T03:21:24.918Z,1017.58
2017-12-02T03:22:05.480Z,1017.59
2017-12-02T03:22:46.041Z,1017.61
2017-12-02T03:23:26.622Z,1017.56
2017-12-02T03:24:07.191Z,1017.56
2017-12-02T03:24:47.754Z,1017.56
2017-12-02T03:25:28.328Z,1017.56
2017-12-02T03:26:08.892Z,1017.55
2017-12-02T03:26:49.465Z,1017.56
2017-12-02T03:27:30.033Z,1017.57
2017-12-02T03:28:10.614Z,1017.58
2017-12-02T03:28:51.182Z,1017.56
2017-12-02T03:29:31.765Z,1017.61
2017-12-02T03:30:12.329Z,1017.57
2017-12-02T03:30:52.894Z,1017.58
2017-12-02T03:31:33.496Z,1017.56
2017-12-02T03:32:14.059Z,1017.57
2017-12-02T03:32:54.622Z,1017.59
2017-12-02T03:33:35.193Z,1017.59
2017-12-02T03:34:15.758Z,1017.62
2017-12-02T03:34:56.317Z,1017.63
2017-12-02T03:35:36.889Z,1017.66
2017-12-02T03:36:17.445Z,1017.69
2017-12-02T03:36:58.001Z,1017.67
2017-12-02T03:37:38.573Z,1017.69
2017-12-02T03:38:19.148Z,1017.67
2017-12-02T03:38:59.720Z,1017.66
2017-12-02T03:39:40.299Z,1017.69
2017-12-02T03:40:20.875Z,1017.7
2017-12-02T03:41:01.430Z,1017.69
2017-12-02T03:41:41.994Z,1017.69
2017-12-02T03:42:22.574Z,1017.67
2017-12-02T03:43:03.136Z,1017.7
2017-12-02T03:43:43.707Z,1017.73
2017-12-02T03:44:24.265Z,1017.73
2017-12-02T03:45:04.811Z,1017.71
2017-12-02T03:45:45.385Z,1017.72
2017-12-02T03:46:25.944Z,1017.74
2017-12-02T03:47:06.559Z,1017.75
2017-12-02T03:47:47.109Z,1017.76
2017-12-02T03:48:27.673Z,1017.75
2017-12-02T03:49:08.281Z,1017.75
2017-12-02T03:49:48.845Z,1017.75
2017-12-02T03:50:29.418Z,1017.81
2017-12-02T03:51:09.970Z,1017.83
2017-12-02T03:51:50.555Z,1017.82
2017-12-02T03:52:31.129Z,1017.83
2017-12-02T03:53:11.685Z,1017.81
2017-12-02T03:53:52.279Z,1017.81
2017-12-02T03:54:32.835Z,1017.82
2017-12-02T03:55:13.403Z,1017.84
2017-12-02T03:55:53.965Z,1017.87
2017-12-02T03:56:34.531Z,1017.84
2017-12-02T03:57:15.108Z,1017.83
2017-12-02T03:57:55.709Z,1017.85
2017-12-02T03:58:36.283Z,1017.9
2017-12-02T03:59:16.839Z,1017.88
2017-12-02T03:59:57.417Z,1017.91
2017-12-02T04:00:38.003Z,1017.89
2017-12-02T04:01:18.578Z,1017.91
2017-12-02T04:01:59.181Z,1017.88
2017-12-02T04:02:39.769Z,1017.93
2017-12-02T04:03:20.349Z,1017.9
2017-12-02T04:04:00.921Z,1017.94
2017-12-02T04:04:41.509Z,1017.92
2017-12-02T04:05:22.095Z,1017.94
2017-12-02T04:06:02.692Z,1017.95
2017-12-02T04:06:43.286Z,1017.9
2017-12-02T04:07:23.850Z,1017.92
2017-12-02T04:08:04.444Z,1017.9
2017-12-02T04:08:45.025Z,1017.94
2017-12-02T04:09:25.589Z,1017.97
2017-12-02T04:10:06.181Z,1017.96
2017-12-02T04:10:46.748Z,1017.97
2017-12-02T04:11:27.323Z,1017.96
2017-12-02T04:12:07.884Z,1017.97
2017-12-02T04:12:48.450Z,1017.98
2017-12-02T04:13:29.025Z,1017.99
2017-12-02T04:14:09.627Z,1017.98
2017-12-02T04:14:50.224Z,1017.99
2017-12-02T04:15:30.817Z,1018
2017-12-02T04:16:11.414Z,1017.99
2017-12-02T04:16:51.975Z,1017.99
2017-12-02T04:17:32.547Z,1018.01
2017-12-02T04:18:13.121Z,1018.03
2017-12-02T04:18:53.690Z,1017.98
2017-12-02T04:19:34.274Z,1018.01
2017-12-02T04:20:14.835Z,1018
2017-12-02T04:20:55.398Z,1018.03
2017-12-02T04:21:35.978Z,1017.99
2017-12-02T04:22:16.529Z,1018.02
2017-12-02T04:22:57.098Z,1018.08
2017-12-02T04:23:37.683Z,1018.06
2017-12-02T04:24:18.247Z,1018.07
2017-12-02T04:24:58.821Z,1018.07
2017-12-02T04:25:39.381Z,1018.05
2017-12-02T04:26:19.936Z,1018.06
2017-12-02T04:27:00.521Z,1018
2017-12-02T04:27:41.084Z,1018.02
2017-12-02T04:28:21.662Z,1018
2017-12-02T04:29:02.244Z,1018.05
2017-12-02T04:29:42.825Z,1018.02
2017-12-02T04:30:23.394Z,1018
2017-12-02T04:31:03.982Z,1018.01
2017-12-02T04:31:44.555Z,1018
2017-12-02T04:32:25.108Z,1018.02
2017-12-02T04:33:05.693Z,1018.01
2017-12-02T04:33:46.245Z,1017.99
2017-12-02T04:34:26.806Z,1017.99
2017-12-02T04:35:07.382Z,1018.03
2017-12-02T04:35:47.969Z,1018.04
2017-12-02T04:36:28.541Z,1018
2017-12-02T04:37:09.129Z,1018.03
2017-12-02T04:37:49.695Z,1018.04
2017-12-02T04:38:30.262Z,1018.03
2017-12-02T04:39:10.836Z,1018.02
2017-12-02T04:39:51.418Z,1018.02
2017-12-02T04:40:31.995Z,1018
2017-12-02T04:41:12.560Z,1018.02
2017-12-02T04:41:53.125Z,1018.06
2017-12-02T04:42:33.679Z,1018.07
2017-12-02T04:43:14.263Z,1018.03
2017-12-02T04:43:54.840Z,1018.07
2017-12-02T04:44:35.404Z,1018.06
2017-12-02T04:45:15.967Z,1018.05
2017-12-02T04:45:56.641Z,1018.07
2017-12-02T04:46:37.226Z,1018.07
2017-12-02T04:47:17.816Z,1018.07
2017-12-02T04:47:58.386Z,1018.12
2017-12-02T04:48:38.952Z,1018.13
2017-12-02T04:49:19.512Z,1018.08
2017-12-02T04:50:00.099Z,1018.14
2017-12-02T04:50:40.701Z,1018.14
2017-12-02T04:51:21.260Z,1018.13
2017-12-02T04:52:01.814Z,1018.16
2017-12-02T04:52:42.380Z,1018.1
2017-12-02T04:53:22.954Z,1018.16
2017-12-02T04:54:03.523Z,1018.14
2017-12-02T04:54:44.099Z,1018.18
2017-12-02T04:55:24.669Z,1018.23
2017-12-02T10:54:14.821Z,1020.17
2017-12-02T10:54:55.389Z,1020.11
2017-12-02T10:55:35.970Z,1020.11
2017-12-02T10:56:16.575Z,1020.15
2017-12-02T10:56:57.261Z,1020.13
2017-12-02T10:57:37.994Z,1020.12
2017-12-02T10:58:18.800Z,1020.14
2017-12-02T10:58:59.359Z,1020.16
2017-12-02T10:59:40.261Z,1020.13
2017-12-02T11:00:21.261Z,1020.15
2017-12-02T11:01:02.231Z,1020.15
2017-12-02T11:01:43.104Z,1020.11
2017-12-02T11:02:23.681Z,1020.13
2017-12-02T11:03:04.272Z,1020.15
2017-12-02T11:03:45.345Z,1020.13
2017-12-02T11:04:25.938Z,1020.09
2017-12-02T11:05:06.527Z,1020.11
2017-12-02T11:05:47.099Z,1020.16
2017-12-02T11:06:27.660Z,1020.13
2017-12-02T11:07:08.230Z,1020.14
2017-12-02T11:07:48.814Z,1020.13
2017-12-02T11:08:29.400Z,1020.12
2017-12-02T11:09:10.060Z,1020.13
2017-12-02T11:09:50.612Z,1020.13
2017-12-02T11:10:31.226Z,1020.14
2017-12-02T11:11:11.747Z,1020.11
2017-12-02T11:11:52.315Z,1020.14
2017-12-02T11:12:32.875Z,1020.16
2017-12-02T11:13:13.445Z,1020.16
2017-12-02T11:13:54.014Z,1020.14
2017-12-02T11:14:34.615Z,1020.17
2017-12-02T11:15:15.177Z,1020.18
2017-12-02T11:15:55.745Z,1020.19
2017-12-02T11:16:36.315Z,1020.2
2017-12-02T11:17:16.875Z,1020.19
2017-12-02T11:17:57.485Z,1020.13
2017-12-02T11:18:38.038Z,1020.15
2017-12-02T11:19:18.685Z,1020.17
2017-12-02T11:19:59.224Z,1020.16
2017-12-02T11:20:39.804Z,1020.16
2017-12-02T11:21:20.370Z,1020.18
2017-12-02T11:22:00.945Z,1020.15
2017-12-02T11:22:41.521Z,1020.17
2017-12-02T11:23:22.117Z,1020.2
2017-12-02T11:24:02.691Z,1020.18
2017-12-02T11:24:44.244Z,1020.16
2017-12-02T11:25:24.831Z,1020.13
2017-12-02T11:26:05.416Z,1020.13
2017-12-02T11:26:45.980Z,1020.15
2017-12-02T11:27:26.556Z,1020.16
2017-12-02T11:28:07.130Z,1020.14
2017-12-02T11:28:47.723Z,1020.2
2017-12-02T11:29:28.308Z,1020.17
2017-12-02T11:30:08.883Z,1020.17
2017-12-02T11:30:49.474Z,1020.17
2017-12-02T11:31:30.058Z,1020.19
2017-12-02T11:32:10.634Z,1020.18
2017-12-02T11:32:51.271Z,1020.17
2017-12-02T11:33:31.802Z,1020.21
2017-12-02T11:34:12.381Z,1020.14
2017-12-02T11:34:52.967Z,1020.19
2017-12-02T11:35:33.557Z,1020.14
2017-12-02T11:36:14.144Z,1020.12
2017-12-02T11:36:54.740Z,1020.14
2017-12-02T11:37:35.323Z,1020.14
2017-12-02T11:38:15.935Z,1020.13
2017-12-02T11:38:56.485Z,1020.13
2017-12-02T11:39:37.056Z,1020.13
2017-12-02T11:40:17.654Z,1020.14
2017-12-02T11:40:58.231Z,1020.18
2017-12-02T11:41:38.792Z,1020.21
2017-12-02T11:42:19.346Z,1020.14
2017-12-02T11:42:59.945Z,1020.15
2017-12-02T11:43:40.487Z,1020.16
2017-12-02T11:44:21.103Z,1020.14
2017-12-02T11:45:01.888Z,1020.19
2017-12-02T11:45:42.440Z,1020.19
2017-12-02T11:46:23.018Z,1020.18
2017-12-02T11:47:03.601Z,1020.13
2017-12-02T11:47:44.202Z,1020.16
2017-12-02T11:48:24.766Z,1020.17
2017-12-02T11:49:05.345Z,1020.16
2017-12-02T11:49:45.913Z,1020.18
2017-12-02T11:50:26.514Z,1020.19
2017-12-02T11:51:07.094Z,1020.18
2017-12-02T11:51:47.698Z,1020.14
2017-12-02T11:52:28.267Z,1020.16
2017-12-02T11:53:08.859Z,1020.18
2017-12-02T11:53:49.450Z,1020.2
2017-12-02T11:54:30.044Z,1020.12
2017-12-02T11:55:10.646Z,1020.16
2017-12-02T11:55:51.236Z,1020.13
2017-12-02T11:56:31.844Z,1020.15
2017-12-02T11:57:12.401Z,1020.15
2017-12-02T11:57:53.031Z,1020.15
2017-12-02T11:58:33.607Z,1020.15
2017-12-02T11:59:14.175Z,1020.14
2017-12-02T11:59:54.758Z,1020.14
2017-12-02T12:00:35.387Z,1020.13
2017-12-02T12:01:15.975Z,1020.15
2017-12-02T12:01:56.566Z,1020.18
2017-12-02T12:02:37.141Z,1020.14
2017-12-02T12:03:17.699Z,1020.17
2017-12-02T12:03:58.284Z,1020.13
2017-12-02T12:04:38.841Z,1020.14
2017-12-02T12:05:19.425Z,1020.13
2017-12-02T12:06:00.003Z,1020.15
2017-12-02T12:06:40.566Z,1020.12
2017-12-02T12:07:21.139Z,1020.11
2017-12-02T12:08:01.767Z,1020.11
2017-12-02T12:08:42.357Z,1020.06
2017-12-02T12:09:22.977Z,1020.1
2017-12-02T12:10:03.568Z,1020.11
2017-12-02T12:10:44.147Z,1020.11
2017-12-02T12:11:24.747Z,1020.1
2017-12-02T12:12:05.336Z,1020.09
2017-12-02T12:12:45.914Z,1020.1
2017-12-02T12:13:26.485Z,1020.09
2017-12-02T12:14:07.083Z,1020.1
2017-12-02T12:14:47.676Z,1020.05
2017-12-02T12:15:28.298Z,1020.12
2017-12-02T12:16:08.868Z,1020.13
2017-12-02T12:16:49.441Z,1020.1
2017-12-02T12:17:30.006Z,1020.11
2017-12-02T12:18:10.602Z,1020.09
2017-12-02T12:18:51.165Z,1020.1
2017-12-02T12:19:31.752Z,1020.12
2017-12-02T12:20:12.356Z,1020.07
2017-12-02T12:20:52.936Z,1020.05
2017-12-02T12:21:33.503Z,1020.09
2017-12-02T12:22:14.113Z,1020.1
2017-12-02T12:22:54.728Z,1020.09
2017-12-02T12:23:35.288Z,1020.08
2017-12-02T12:24:15.870Z,1020.09
2017-12-02T12:24:56.483Z,1020.06
2017-12-02T12:25:37.106Z,1020.1
2017-12-02T12:26:17.682Z,1020.08
2017-12-02T12:26:58.269Z,1020.05
2017-12-02T12:27:38.844Z,1020.07
2017-12-02T12:28:19.424Z,1020.06
2017-12-02T12:28:59.995Z,1020.1
2017-12-02T12:29:40.566Z,1020.04
2017-12-02T12:30:21.134Z,1020.04
2017-12-02T12:31:01.717Z,1020.06
2017-12-02T12:31:42.282Z,1020.04
2017-12-02T12:32:22.862Z,1020
2017-12-02T12:33:03.430Z,1020.06
2017-12-02T12:33:44.026Z,1020.02
2017-12-02T12:34:24.592Z,1020.02
2017-12-02T12:35:05.195Z,1020.06
2017-12-02T12:35:45.797Z,1020.04
2017-12-02T12:36:26.376Z,1020.06
2017-12-02T12:37:06.943Z,1020.04
2017-12-02T12:37:47.513Z,1020.08
2017-12-02T12:38:28.067Z,1020.06
2017-12-02T12:39:08.649Z,1020.05
2017-12-02T12:39:49.332Z,1020.05
2017-12-02T12:40:30.003Z,1020.07
2017-12-02T12:41:10.600Z,1020.05
2017-12-02T12:41:51.167Z,1020.06
2017-12-02T12:42:31.736Z,1020.05
2017-12-02T12:43:12.315Z,1020.04
2017-12-02T12:43:52.914Z,1020.05
2017-12-02T12:44:33.485Z,1020.06
2017-12-02T12:45:14.047Z,1020.03
2017-12-02T12:45:54.616Z,1020.09
2017-12-02T12:46:35.194Z,1020.03
2017-12-02T12:47:15.768Z,1020.02
2017-12-02T12:47:56.352Z,1020.05
2017-12-02T12:48:36.929Z,1020.05
2017-12-02T12:49:17.486Z,1020.02
2017-12-02T12:49:58.072Z,1020.1
2017-12-02T12:50:38.688Z,1020.07
2017-12-02T12:51:19.266Z,1020.08
2017-12-02T12:51:59.827Z,1020.12
2017-12-02T12:52:40.415Z,1020.12
2017-12-02T12:53:21.030Z,1020.09
2017-12-02T12:54:01.599Z,1020.08
2017-12-02T12:54:42.178Z,1020.12
2017-12-02T12:55:22.752Z,1020.11
2017-12-02T12:56:03.324Z,1020.12
2017-12-02T12:56:43.887Z,1020.1
2017-12-02T12:57:24.471Z,1020.1
2017-12-02T12:58:05.034Z,1020.11
2017-12-02T12:58:45.696Z,1020.1
2017-12-02T12:59:26.218Z,1020.12
2017-12-02T13:00:06.795Z,1020.12
2017-12-02T13:00:47.361Z,1020.07
2017-12-02T13:01:27.920Z,1020.13
2017-12-02T13:02:08.483Z,1020.09
2017-12-02T13:02:49.083Z,1020.05
2017-12-02T13:03:29.680Z,1020.08
2017-12-02T13:04:10.241Z,1020.1
2017-12-02T13:04:50.822Z,1020.07
2017-12-02T13:05:31.395Z,1020.07
2017-12-02T13:06:11.970Z,1020.1
2017-12-02T13:06:52.545Z,1020.06
2017-12-02T13:07:33.114Z,1020.04
2017-12-02T13:08:13.695Z,1020.04
2017-12-02T13:08:54.290Z,1020
2017-12-02T13:09:34.893Z,1020.05
2017-12-02T13:10:15.450Z,1020.05
2017-12-02T13:10:55.995Z,1020.02
2017-12-02T13:11:36.552Z,1020.02
2017-12-02T13:12:17.124Z,1020.06
2017-12-02T13:12:57.680Z,1019.98
2017-12-02T13:13:38.239Z,1019.96
2017-12-02T13:14:18.816Z,1019.98
2017-12-02T13:14:59.403Z,1019.97
2017-12-02T13:15:39.975Z,1020
2017-12-02T13:16:20.535Z,1020.02
2017-12-02T13:17:01.108Z,1020.02
2017-12-02T13:17:41.670Z,1019.99
2017-12-02T13:18:22.272Z,1020
2017-12-02T13:19:02.835Z,1020.09
2017-12-02T13:19:43.531Z,1020.05
2017-12-02T13:20:24.159Z,1020.11
2017-12-02T13:21:04.698Z,1020.06
2017-12-02T13:21:45.279Z,1020.05
2017-12-02T13:22:25.844Z,1020.07
2017-12-02T13:23:06.426Z,1020.03
2017-12-02T13:23:47.036Z,1020.04
2017-12-02T13:24:27.597Z,1020.08
2017-12-02T13:25:08.227Z,1020.06
2017-12-02T13:25:48.763Z,1020.03
2017-12-02T13:26:29.349Z,1020.04
2017-12-02T13:27:09.926Z,1020.01
2017-12-02T13:27:50.508Z,1020.01
2017-12-02T13:28:31.102Z,1020.06
2017-12-02T13:29:11.675Z,1020.05
2017-12-02T13:29:52.251Z,1020.1
2017-12-02T13:30:32.810Z,1020.07
2017-12-02T13:31:13.397Z,1020.11
2017-12-02T13:31:53.966Z,1020.1
2017-12-02T13:32:34.531Z,1020.08
2017-12-02T13:33:15.104Z,1020.03
2017-12-02T13:33:55.691Z,1020.02
2017-12-02T13:34:36.275Z,1020.07
2017-12-02T13:35:16.839Z,1020.02
2017-12-02T13:35:57.513Z,1020.03
2017-12-02T13:36:38.076Z,1020.02
2017-12-02T13:37:18.638Z,1020.01
2017-12-02T13:37:59.228Z,1020.01
2017-12-02T13:38:39.815Z,1020
2017-12-02T13:39:20.428Z,1020.01
2017-12-02T13:40:01.015Z,1019.96
2017-12-02T13:40:41.613Z,1019.96
2017-12-02T13:41:22.186Z,1019.97
2017-12-02T13:42:02.762Z,1019.96
2017-12-02T13:42:43.345Z,1019.93
2017-12-02T13:43:23.914Z,1019.94
2017-12-02T13:44:04.494Z,1019.95
2017-12-02T13:44:45.056Z,1019.95
2017-12-02T13:45:25.627Z,1019.97
2017-12-02T13:46:06.199Z,1019.95
2017-12-02T13:46:46.790Z,1019.96
2017-12-02T13:47:27.383Z,1019.99
2017-12-02T13:48:07.960Z,1019.95
2017-12-02T13:48:48.537Z,1019.95
2017-12-02T13:49:29.137Z,1019.98
2017-12-02T13:50:09.698Z,1019.94
2017-12-02T13:50:50.285Z,1019.97
2017-12-02T13:51:30.889Z,1019.87
2017-12-02T13:52:11.462Z,1019.89
2017-12-02T13:52:52.045Z,1019.88
2017-12-02T13:53:32.622Z,1019.84
2017-12-02T13:54:13.187Z,1019.9
2017-12-02T13:54:53.771Z,1019.9
2017-12-02T13:55:34.387Z,1019.87
2017-12-02T13:56:15.034Z,1019.88
2017-12-02T13:56:55.624Z,1019.87
2017-12-02T13:57:36.231Z,1019.92
2017-12-02T13:58:16.820Z,1019.88
2017-12-02T13:58:57.412Z,1019.85
2017-12-02T13:59:38.035Z,1019.85
2017-12-02T14:00:18.625Z,1019.86
2017-12-02T14:00:59.197Z,1019.84
2017-12-02T14:01:39.805Z,1019.89
2017-12-02T14:02:20.406Z,1019.88
2017-12-02T14:03:01.022Z,1019.9
2017-12-02T14:03:41.606Z,1019.9
2017-12-02T14:04:22.177Z,1019.97
2017-12-02T14:05:02.827Z,1019.95
2017-12-02T14:05:43.394Z,1019.95
2017-12-02T14:06:24.000Z,1019.94
2017-12-02T14:07:04.570Z,1019.91
2017-12-02T14:07:45.157Z,1019.96
2017-12-02T14:08:25.746Z,1019.98
2017-12-02T14:09:06.358Z,1019.96
2017-12-02T14:09:46.951Z,1019.96
2017-12-02T14:10:27.536Z,1019.99
2017-12-02T14:11:08.111Z,1019.99
2017-12-02T14:11:48.725Z,1019.99